sensor_id;sensor_type;location;lat;lon;timestamp;P1;durP1;ratioP1;P2;durP2;ratioP2
3050;SDS011;1535;51.098;6.414;2023-06-24T00:00:07;6.10;;;5.90;;
3050;SDS011;1535;51.098;6.414;2023-06-24T00:02:38;6.50;;;6.30;;
3050;SDS011;1535;51.098;6.414;2023-06-24T00:05:09;5.97;;;5.77;;
3050;SDS011;1535;51.098;6.414;2023-06-24T00:07:36;6.50;;;6.30;;
3050;SDS011;1535;51.098;6.414;2023-06-24T00:10:09;6.93;;;6.73;;
3050;SDS011;1535;51.098;6.414;2023-06-24T00:12:37;6.53;;;6.33;;
3050;SDS011;1535;51.098;6.414;2023-06-24T00:15:06;6.50;;;6.30;;
3050;SDS011;1535;51.098;6.414;2023-06-24T00:17:34;7.10;;;6.90;;
3050;SDS011;1535;51.098;6.414;2023-06-24T00:20:04;6.20;;;6.00;;
3050;SDS011;1535;51.098;6.414;2023-06-24T00:22:34;6.30;;;6.10;;
3050;SDS011;1535;51.098;6.414;2023-06-24T00:25:01;6.90;;;6.70;;
3050;SDS011;1535;51.098;6.414;2023-06-24T00:27:28;6.20;;;6.00;;
3050;SDS011;1535;51.098;6.414;2023-06-24T00:29:54;5.87;;;5.67;;
3050;SDS011;1535;51.098;6.414;2023-06-24T00:32:21;6.20;;;6.00;;
3050;SDS011;1535;51.098;6.414;2023-06-24T00:34:48;5.50;;;5.40;;
3050;SDS011;1535;51.098;6.414;2023-06-24T00:37:16;5.23;;;5.13;;
3050;SDS011;1535;51.098;6.414;2023-06-24T00:39:43;6.20;;;6.00;;
3050;SDS011;1535;51.098;6.414;2023-06-24T00:42:11;6.53;;;6.33;;
3050;SDS011;1535;51.098;6.414;2023-06-24T00:44:38;6.80;;;6.60;;
3050;SDS011;1535;51.098;6.414;2023-06-24T00:47:06;6.20;;;6.00;;
3050;SDS011;1535;51.098;6.414;2023-06-24T00:49:35;6.47;;;6.27;;
3050;SDS011;1535;51.098;6.414;2023-06-24T00:52:02;6.90;;;6.70;;
3050;SDS011;1535;51.098;6.414;2023-06-24T00:54:31;6.47;;;6.27;;
3050;SDS011;1535;51.098;6.414;2023-06-24T00:56:58;5.87;;;5.67;;
3050;SDS011;1535;51.098;6.414;2023-06-24T00:59:26;6.03;;;5.83;;
3050;SDS011;1535;51.098;6.414;2023-06-24T01:01:56;6.53;;;6.33;;
3050;SDS011;1535;51.098;6.414;2023-06-24T01:04:26;6.83;;;6.63;;
3050;SDS011;1535;51.098;6.414;2023-06-24T01:06:54;6.57;;;6.37;;
3050;SDS011;1535;51.098;6.414;2023-06-24T01:09:21;6.50;;;6.30;;
3050;SDS011;1535;51.098;6.414;2023-06-24T01:11:49;6.20;;;6.00;;
3050;SDS011;1535;51.098;6.414;2023-06-24T01:14:17;6.60;;;6.40;;
3050;SDS011;1535;51.098;6.414;2023-06-24T01:16:47;6.43;;;6.23;;
3050;SDS011;1535;51.098;6.414;2023-06-24T01:19:29;5.80;;;5.60;;
3050;SDS011;1535;51.098;6.414;2023-06-24T01:22:19;6.00;;;5.80;;
3050;SDS011;1535;51.098;6.414;2023-06-24T01:25:01;6.10;;;5.90;;
3050;SDS011;1535;51.098;6.414;2023-06-24T01:27:48;6.77;;;6.57;;
3050;SDS011;1535;51.098;6.414;2023-06-24T01:30:38;7.10;;;6.90;;
3050;SDS011;1535;51.098;6.414;2023-06-24T01:33:38;6.37;;;6.17;;
3050;SDS011;1535;51.098;6.414;2023-06-24T01:36:12;6.57;;;6.37;;
3050;SDS011;1535;51.098;6.414;2023-06-24T01:38:42;6.30;;;6.10;;
3050;SDS011;1535;51.098;6.414;2023-06-24T01:41:16;6.20;;;6.00;;
3050;SDS011;1535;51.098;6.414;2023-06-24T01:43:47;6.37;;;6.17;;
3050;SDS011;1535;51.098;6.414;2023-06-24T01:46:17;5.90;;;5.70;;
3050;SDS011;1535;51.098;6.414;2023-06-24T01:48:48;6.30;;;6.10;;
3050;SDS011;1535;51.098;6.414;2023-06-24T01:51:18;6.60;;;6.40;;
3050;SDS011;1535;51.098;6.414;2023-06-24T01:53:49;6.43;;;6.23;;
3050;SDS011;1535;51.098;6.414;2023-06-24T01:56:18;6.33;;;6.13;;
3050;SDS011;1535;51.098;6.414;2023-06-24T01:58:50;6.60;;;6.40;;
3050;SDS011;1535;51.098;6.414;2023-06-24T02:01:20;5.60;;;5.43;;
3050;SDS011;1535;51.098;6.414;2023-06-24T02:03:50;7.40;;;7.20;;
3050;SDS011;1535;51.098;6.414;2023-06-24T02:06:20;7.03;;;6.83;;
3050;SDS011;1535;51.098;6.414;2023-06-24T02:08:48;6.60;;;6.40;;
3050;SDS011;1535;51.098;6.414;2023-06-24T02:11:18;7.60;;;7.30;;
3050;SDS011;1535;51.098;6.414;2023-06-24T02:13:47;7.07;;;6.77;;
3050;SDS011;1535;51.098;6.414;2023-06-24T02:16:15;6.90;;;6.70;;
3050;SDS011;1535;51.098;6.414;2023-06-24T02:18:43;5.93;;;5.73;;
3050;SDS011;1535;51.098;6.414;2023-06-24T02:21:14;5.80;;;5.60;;
3050;SDS011;1535;51.098;6.414;2023-06-24T02:23:43;5.43;;;5.33;;
3050;SDS011;1535;51.098;6.414;2023-06-24T02:26:10;6.10;;;5.90;;
3050;SDS011;1535;51.098;6.414;2023-06-24T02:28:38;6.67;;;6.47;;
3050;SDS011;1535;51.098;6.414;2023-06-24T02:31:06;7.20;;;6.80;;
3050;SDS011;1535;51.098;6.414;2023-06-24T02:33:36;7.27;;;7.07;;
3050;SDS011;1535;51.098;6.414;2023-06-24T02:36:04;7.23;;;7.03;;
3050;SDS011;1535;51.098;6.414;2023-06-24T02:38:33;7.17;;;6.97;;
3050;SDS011;1535;51.098;6.414;2023-06-24T02:41:00;7.17;;;6.97;;
3050;SDS011;1535;51.098;6.414;2023-06-24T02:43:29;7.10;;;6.90;;
3050;SDS011;1535;51.098;6.414;2023-06-24T02:45:56;7.37;;;7.17;;
3050;SDS011;1535;51.098;6.414;2023-06-24T02:48:26;8.00;;;7.70;;
3050;SDS011;1535;51.098;6.414;2023-06-24T02:50:57;8.13;;;7.83;;
3050;SDS011;1535;51.098;6.414;2023-06-24T02:53:25;7.23;;;7.03;;
3050;SDS011;1535;51.098;6.414;2023-06-24T02:55:54;7.00;;;6.80;;
3050;SDS011;1535;51.098;6.414;2023-06-24T02:58:21;7.47;;;7.27;;
3050;SDS011;1535;51.098;6.414;2023-06-24T03:00:52;7.60;;;7.40;;
3050;SDS011;1535;51.098;6.414;2023-06-24T03:03:19;7.60;;;7.40;;
3050;SDS011;1535;51.098;6.414;2023-06-24T03:05:47;8.60;;;8.20;;
3050;SDS011;1535;51.098;6.414;2023-06-24T03:08:15;7.40;;;7.20;;
3050;SDS011;1535;51.098;6.414;2023-06-24T03:10:42;7.50;;;7.30;;
3050;SDS011;1535;51.098;6.414;2023-06-24T03:13:10;7.80;;;7.60;;
3050;SDS011;1535;51.098;6.414;2023-06-24T03:15:38;7.53;;;7.33;;
3050;SDS011;1535;51.098;6.414;2023-06-24T03:18:05;7.60;;;7.40;;
3050;SDS011;1535;51.098;6.414;2023-06-24T03:20:32;7.50;;;7.30;;
3050;SDS011;1535;51.098;6.414;2023-06-24T03:23:04;7.30;;;7.10;;
3050;SDS011;1535;51.098;6.414;2023-06-24T03:25:32;7.50;;;7.30;;
3050;SDS011;1535;51.098;6.414;2023-06-24T03:27:59;7.30;;;7.10;;
3050;SDS011;1535;51.098;6.414;2023-06-24T03:30:27;7.10;;;6.90;;
3050;SDS011;1535;51.098;6.414;2023-06-24T03:32:54;7.20;;;7.00;;
3050;SDS011;1535;51.098;6.414;2023-06-24T03:35:22;7.00;;;6.80;;
3050;SDS011;1535;51.098;6.414;2023-06-24T03:37:49;7.30;;;7.10;;
3050;SDS011;1535;51.098;6.414;2023-06-24T03:40:16;7.37;;;7.17;;
3050;SDS011;1535;51.098;6.414;2023-06-24T03:42:44;7.30;;;7.10;;
3050;SDS011;1535;51.098;6.414;2023-06-24T03:45:11;7.00;;;6.80;;
3050;SDS011;1535;51.098;6.414;2023-06-24T03:47:39;5.80;;;5.60;;
3050;SDS011;1535;51.098;6.414;2023-06-24T03:50:06;7.00;;;6.80;;
3050;SDS011;1535;51.098;6.414;2023-06-24T03:52:34;6.73;;;6.53;;
3050;SDS011;1535;51.098;6.414;2023-06-24T03:55:01;6.53;;;6.33;;
3050;SDS011;1535;51.098;6.414;2023-06-24T03:57:30;37.50;;;14.23;;
3050;SDS011;1535;51.098;6.414;2023-06-24T03:59:57;5.70;;;5.50;;
3050;SDS011;1535;51.098;6.414;2023-06-24T04:02:24;6.07;;;5.87;;
3050;SDS011;1535;51.098;6.414;2023-06-24T04:04:53;6.13;;;5.93;;
3050;SDS011;1535;51.098;6.414;2023-06-24T04:07:21;9.13;;;8.73;;
3050;SDS011;1535;51.098;6.414;2023-06-24T04:09:53;6.07;;;5.87;;
3050;SDS011;1535;51.098;6.414;2023-06-24T04:12:21;5.40;;;5.30;;
3050;SDS011;1535;51.098;6.414;2023-06-24T04:14:47;6.03;;;5.83;;
3050;SDS011;1535;51.098;6.414;2023-06-24T04:17:14;7.43;;;7.13;;
3050;SDS011;1535;51.098;6.414;2023-06-24T04:19:41;6.30;;;6.10;;
3050;SDS011;1535;51.098;6.414;2023-06-24T04:22:10;7.40;;;7.13;;
3050;SDS011;1535;51.098;6.414;2023-06-24T04:24:39;7.20;;;6.80;;
3050;SDS011;1535;51.098;6.414;2023-06-24T04:27:06;6.37;;;6.07;;
3050;SDS011;1535;51.098;6.414;2023-06-24T04:29:35;6.07;;;5.77;;
3050;SDS011;1535;51.098;6.414;2023-06-24T04:32:02;11.23;;;4.70;;
3050;SDS011;1535;51.098;6.414;2023-06-24T04:34:30;4.67;;;4.57;;
3050;SDS011;1535;51.098;6.414;2023-06-24T04:36:58;4.90;;;4.80;;
3050;SDS011;1535;51.098;6.414;2023-06-24T04:39:26;4.17;;;4.07;;
3050;SDS011;1535;51.098;6.414;2023-06-24T04:41:53;6.60;;;6.30;;
3050;SDS011;1535;51.098;6.414;2023-06-24T04:44:20;4.63;;;4.50;;
3050;SDS011;1535;51.098;6.414;2023-06-24T04:46:47;5.20;;;5.00;;
3050;SDS011;1535;51.098;6.414;2023-06-24T04:49:14;3.70;;;3.60;;
3050;SDS011;1535;51.098;6.414;2023-06-24T04:51:41;4.30;;;4.10;;
3050;SDS011;1535;51.098;6.414;2023-06-24T04:54:08;4.13;;;4.03;;
3050;SDS011;1535;51.098;6.414;2023-06-24T04:56:39;7.13;;;4.33;;
3050;SDS011;1535;51.098;6.414;2023-06-24T04:59:06;4.10;;;3.90;;
3050;SDS011;1535;51.098;6.414;2023-06-24T05:01:33;6.57;;;6.17;;
3050;SDS011;1535;51.098;6.414;2023-06-24T05:04:00;7.00;;;5.83;;
3050;SDS011;1535;51.098;6.414;2023-06-24T05:06:27;4.60;;;4.50;;
3050;SDS011;1535;51.098;6.414;2023-06-24T05:08:55;5.33;;;5.13;;
3050;SDS011;1535;51.098;6.414;2023-06-24T05:11:22;4.57;;;4.43;;
3050;SDS011;1535;51.098;6.414;2023-06-24T05:13:50;5.33;;;4.87;;
3050;SDS011;1535;51.098;6.414;2023-06-24T05:16:18;7.30;;;6.80;;
3050;SDS011;1535;51.098;6.414;2023-06-24T05:18:45;6.60;;;6.30;;
3050;SDS011;1535;51.098;6.414;2023-06-24T05:21:11;6.73;;;6.43;;
3050;SDS011;1535;51.098;6.414;2023-06-24T05:23:39;6.30;;;6.10;;
3050;SDS011;1535;51.098;6.414;2023-06-24T05:26:05;6.83;;;6.63;;
3050;SDS011;1535;51.098;6.414;2023-06-24T05:28:32;8.40;;;7.90;;
3050;SDS011;1535;51.098;6.414;2023-06-24T05:31:00;7.37;;;7.07;;
3050;SDS011;1535;51.098;6.414;2023-06-24T05:33:27;7.67;;;7.40;;
3050;SDS011;1535;51.098;6.414;2023-06-24T05:35:54;8.93;;;8.53;;
3050;SDS011;1535;51.098;6.414;2023-06-24T05:38:21;9.70;;;9.27;;
3050;SDS011;1535;51.098;6.414;2023-06-24T05:40:49;8.40;;;8.10;;
3050;SDS011;1535;51.098;6.414;2023-06-24T05:43:16;10.40;;;9.83;;
3050;SDS011;1535;51.098;6.414;2023-06-24T05:45:43;8.83;;;8.33;;
3050;SDS011;1535;51.098;6.414;2023-06-24T05:48:12;8.40;;;8.10;;
3050;SDS011;1535;51.098;6.414;2023-06-24T05:50:39;9.87;;;9.37;;
3050;SDS011;1535;51.098;6.414;2023-06-24T05:53:06;9.13;;;8.83;;
3050;SDS011;1535;51.098;6.414;2023-06-24T05:55:33;8.43;;;8.13;;
3050;SDS011;1535;51.098;6.414;2023-06-24T05:58:00;7.87;;;7.60;;
3050;SDS011;1535;51.098;6.414;2023-06-24T06:00:27;8.37;;;8.07;;
3050;SDS011;1535;51.098;6.414;2023-06-24T06:02:54;9.40;;;9.10;;
3050;SDS011;1535;51.098;6.414;2023-06-24T06:05:22;8.60;;;8.30;;
3050;SDS011;1535;51.098;6.414;2023-06-24T06:07:48;10.43;;;9.83;;
3050;SDS011;1535;51.098;6.414;2023-06-24T06:10:15;13.63;;;12.73;;
3050;SDS011;1535;51.098;6.414;2023-06-24T06:12:42;12.40;;;11.60;;
3050;SDS011;1535;51.098;6.414;2023-06-24T06:15:09;11.33;;;10.93;;
3050;SDS011;1535;51.098;6.414;2023-06-24T06:17:36;12.67;;;11.97;;
3050;SDS011;1535;51.098;6.414;2023-06-24T06:20:05;10.90;;;10.50;;
3050;SDS011;1535;51.098;6.414;2023-06-24T06:22:33;15.90;;;14.57;;
3050;SDS011;1535;51.098;6.414;2023-06-24T06:25:02;12.10;;;11.60;;
3050;SDS011;1535;51.098;6.414;2023-06-24T06:27:30;12.23;;;11.73;;
3050;SDS011;1535;51.098;6.414;2023-06-24T06:29:57;11.33;;;10.93;;
3050;SDS011;1535;51.098;6.414;2023-06-24T06:32:24;12.97;;;12.27;;
3050;SDS011;1535;51.098;6.414;2023-06-24T06:34:51;13.07;;;12.50;;
3050;SDS011;1535;51.098;6.414;2023-06-24T06:37:18;11.20;;;10.80;;
3050;SDS011;1535;51.098;6.414;2023-06-24T06:39:46;14.03;;;13.27;;
3050;SDS011;1535;51.098;6.414;2023-06-24T06:42:13;12.23;;;11.73;;
3050;SDS011;1535;51.098;6.414;2023-06-24T06:44:40;12.70;;;12.20;;
3050;SDS011;1535;51.098;6.414;2023-06-24T06:47:07;13.57;;;12.77;;
3050;SDS011;1535;51.098;6.414;2023-06-24T06:49:34;13.80;;;13.20;;
3050;SDS011;1535;51.098;6.414;2023-06-24T06:52:01;14.30;;;13.60;;
3050;SDS011;1535;51.098;6.414;2023-06-24T06:54:28;14.23;;;13.53;;
3050;SDS011;1535;51.098;6.414;2023-06-24T06:56:59;13.90;;;13.30;;
3050;SDS011;1535;51.098;6.414;2023-06-24T06:59:26;16.37;;;14.27;;
3050;SDS011;1535;51.098;6.414;2023-06-24T07:01:53;14.73;;;13.30;;
3050;SDS011;1535;51.098;6.414;2023-06-24T07:04:20;13.30;;;12.70;;
3050;SDS011;1535;51.098;6.414;2023-06-24T07:06:47;15.13;;;14.47;;
3050;SDS011;1535;51.098;6.414;2023-06-24T07:09:14;13.53;;;12.93;;
3050;SDS011;1535;51.098;6.414;2023-06-24T07:11:41;13.87;;;13.17;;
3050;SDS011;1535;51.098;6.414;2023-06-24T07:14:09;14.43;;;13.83;;
3050;SDS011;1535;51.098;6.414;2023-06-24T07:16:36;16.60;;;15.80;;
3050;SDS011;1535;51.098;6.414;2023-06-24T07:19:02;12.80;;;12.30;;
3050;SDS011;1535;51.098;6.414;2023-06-24T07:21:29;12.73;;;12.23;;
3050;SDS011;1535;51.098;6.414;2023-06-24T07:23:56;14.57;;;13.77;;
3050;SDS011;1535;51.098;6.414;2023-06-24T07:26:23;14.67;;;12.37;;
3050;SDS011;1535;51.098;6.414;2023-06-24T07:28:50;13.07;;;12.57;;
3050;SDS011;1535;51.098;6.414;2023-06-24T07:31:18;14.60;;;13.83;;
3050;SDS011;1535;51.098;6.414;2023-06-24T07:33:45;12.90;;;12.40;;
3050;SDS011;1535;51.098;6.414;2023-06-24T07:36:12;12.43;;;11.90;;
3050;SDS011;1535;51.098;6.414;2023-06-24T07:38:39;14.10;;;13.20;;
3050;SDS011;1535;51.098;6.414;2023-06-24T07:41:07;11.43;;;11.03;;
3050;SDS011;1535;51.098;6.414;2023-06-24T07:43:34;14.27;;;13.47;;
3050;SDS011;1535;51.098;6.414;2023-06-24T07:46:00;12.10;;;11.60;;
3050;SDS011;1535;51.098;6.414;2023-06-24T07:48:30;13.00;;;12.50;;
3050;SDS011;1535;51.098;6.414;2023-06-24T07:50:57;12.23;;;11.73;;
3050;SDS011;1535;51.098;6.414;2023-06-24T07:53:24;13.87;;;13.27;;
3050;SDS011;1535;51.098;6.414;2023-06-24T07:55:51;13.67;;;12.87;;
3050;SDS011;1535;51.098;6.414;2023-06-24T07:58:18;13.67;;;13.07;;
3050;SDS011;1535;51.098;6.414;2023-06-24T08:00:45;11.93;;;11.53;;
3050;SDS011;1535;51.098;6.414;2023-06-24T08:03:12;14.23;;;13.33;;
3050;SDS011;1535;51.098;6.414;2023-06-24T08:05:40;14.47;;;13.77;;
3050;SDS011;1535;51.098;6.414;2023-06-24T08:08:07;13.20;;;12.60;;
3050;SDS011;1535;51.098;6.414;2023-06-24T08:10:35;11.97;;;11.57;;
3050;SDS011;1535;51.098;6.414;2023-06-24T08:13:02;13.53;;;13.03;;
3050;SDS011;1535;51.098;6.414;2023-06-24T08:15:29;13.30;;;12.80;;
3050;SDS011;1535;51.098;6.414;2023-06-24T08:17:56;13.53;;;12.93;;
3050;SDS011;1535;51.098;6.414;2023-06-24T08:20:23;16.30;;;15.53;;
3050;SDS011;1535;51.098;6.414;2023-06-24T08:22:52;13.37;;;12.87;;
3050;SDS011;1535;51.098;6.414;2023-06-24T08:25:19;15.83;;;14.93;;
3050;SDS011;1535;51.098;6.414;2023-06-24T08:27:45;13.47;;;12.97;;
3050;SDS011;1535;51.098;6.414;2023-06-24T08:30:12;15.80;;;15.00;;
3050;SDS011;1535;51.098;6.414;2023-06-24T08:32:40;14.27;;;13.67;;
3050;SDS011;1535;51.098;6.414;2023-06-24T08:35:08;15.43;;;14.67;;
3050;SDS011;1535;51.098;6.414;2023-06-24T08:37:36;14.10;;;13.50;;
3050;SDS011;1535;51.098;6.414;2023-06-24T08:40:05;17.07;;;16.07;;
3050;SDS011;1535;51.098;6.414;2023-06-24T08:42:33;14.70;;;14.10;;
3050;SDS011;1535;51.098;6.414;2023-06-24T08:45:00;14.60;;;14.00;;
3050;SDS011;1535;51.098;6.414;2023-06-24T08:47:27;14.50;;;13.90;;
3050;SDS011;1535;51.098;6.414;2023-06-24T08:49:55;14.97;;;14.37;;
3050;SDS011;1535;51.098;6.414;2023-06-24T08:52:29;16.07;;;15.37;;
3050;SDS011;1535;51.098;6.414;2023-06-24T08:54:58;15.57;;;14.87;;
3050;SDS011;1535;51.098;6.414;2023-06-24T08:57:27;16.53;;;15.77;;
3050;SDS011;1535;51.098;6.414;2023-06-24T08:59:55;17.40;;;16.50;;
3050;SDS011;1535;51.098;6.414;2023-06-24T09:02:22;15.10;;;14.50;;
3050;SDS011;1535;51.098;6.414;2023-06-24T09:04:50;14.77;;;14.17;;
3050;SDS011;1535;51.098;6.414;2023-06-24T09:09:59;15.33;;;14.73;;
3050;SDS011;1535;51.098;6.414;2023-06-24T09:12:28;17.17;;;16.37;;
3050;SDS011;1535;51.098;6.414;2023-06-24T09:14:58;17.17;;;16.37;;
3050;SDS011;1535;51.098;6.414;2023-06-24T09:17:25;16.10;;;15.40;;
3050;SDS011;1535;51.098;6.414;2023-06-24T09:19:53;15.37;;;14.77;;
3050;SDS011;1535;51.098;6.414;2023-06-24T09:22:29;17.30;;;16.30;;
3050;SDS011;1535;51.098;6.414;2023-06-24T09:24:57;16.07;;;15.37;;
3050;SDS011;1535;51.098;6.414;2023-06-24T09:27:30;17.70;;;16.90;;
3050;SDS011;1535;51.098;6.414;2023-06-24T09:29:58;17.40;;;16.43;;
3050;SDS011;1535;51.098;6.414;2023-06-24T09:32:26;15.53;;;14.73;;
3050;SDS011;1535;51.098;6.414;2023-06-24T09:34:55;14.77;;;14.17;;
3050;SDS011;1535;51.098;6.414;2023-06-24T09:37:21;15.40;;;14.80;;
3050;SDS011;1535;51.098;6.414;2023-06-24T09:39:56;17.20;;;16.40;;
3050;SDS011;1535;51.098;6.414;2023-06-24T09:42:23;16.10;;;15.50;;
3050;SDS011;1535;51.098;6.414;2023-06-24T09:44:54;16.47;;;15.77;;
3050;SDS011;1535;51.098;6.414;2023-06-24T09:47:21;17.37;;;16.23;;
3050;SDS011;1535;51.098;6.414;2023-06-24T09:49:50;17.13;;;15.60;;
3050;SDS011;1535;51.098;6.414;2023-06-24T09:52:17;16.20;;;15.50;;
3050;SDS011;1535;51.098;6.414;2023-06-24T09:54:46;16.57;;;15.83;;
3050;SDS011;1535;51.098;6.414;2023-06-24T09:57:16;17.13;;;16.43;;
3050;SDS011;1535;51.098;6.414;2023-06-24T09:59:45;16.67;;;15.80;;
3050;SDS011;1535;51.098;6.414;2023-06-24T10:02:13;15.10;;;14.50;;
3050;SDS011;1535;51.098;6.414;2023-06-24T10:04:41;15.17;;;14.57;;
3050;SDS011;1535;51.098;6.414;2023-06-24T10:07:09;15.47;;;14.87;;
3050;SDS011;1535;51.098;6.414;2023-06-24T10:09:37;15.87;;;15.23;;
3050;SDS011;1535;51.098;6.414;2023-06-24T10:12:05;15.00;;;14.40;;
3050;SDS011;1535;51.098;6.414;2023-06-24T10:14:32;15.00;;;14.40;;
3050;SDS011;1535;51.098;6.414;2023-06-24T10:17:02;16.10;;;15.40;;
3050;SDS011;1535;51.098;6.414;2023-06-24T10:19:31;15.17;;;14.50;;
3050;SDS011;1535;51.098;6.414;2023-06-24T10:22:07;15.40;;;14.70;;
3050;SDS011;1535;51.098;6.414;2023-06-24T10:24:37;16.63;;;15.93;;
3050;SDS011;1535;51.098;6.414;2023-06-24T10:27:07;15.20;;;14.57;;
3050;SDS011;1535;51.098;6.414;2023-06-24T10:29:35;14.87;;;14.17;;
3050;SDS011;1535;51.098;6.414;2023-06-24T10:32:04;14.47;;;13.97;;
3050;SDS011;1535;51.098;6.414;2023-06-24T10:34:34;15.30;;;14.60;;
3050;SDS011;1535;51.098;6.414;2023-06-24T10:37:08;15.07;;;14.47;;
3050;SDS011;1535;51.098;6.414;2023-06-24T10:39:40;14.60;;;14.10;;
3050;SDS011;1535;51.098;6.414;2023-06-24T10:42:31;15.00;;;14.30;;
3050;SDS011;1535;51.098;6.414;2023-06-24T10:45:00;14.10;;;13.60;;
3050;SDS011;1535;51.098;6.414;2023-06-24T10:47:28;14.83;;;14.13;;
3050;SDS011;1535;51.098;6.414;2023-06-24T10:49:57;13.33;;;12.93;;
3050;SDS011;1535;51.098;6.414;2023-06-24T10:52:24;12.93;;;12.60;;
3050;SDS011;1535;51.098;6.414;2023-06-24T10:54:51;16.30;;;15.60;;
3050;SDS011;1535;51.098;6.414;2023-06-24T10:57:22;15.57;;;14.87;;
3050;SDS011;1535;51.098;6.414;2023-06-24T10:59:50;15.03;;;14.33;;
3050;SDS011;1535;51.098;6.414;2023-06-24T11:02:19;14.97;;;14.37;;
3050;SDS011;1535;51.098;6.414;2023-06-24T11:04:47;15.93;;;15.13;;
3050;SDS011;1535;51.098;6.414;2023-06-24T11:07:18;15.60;;;14.90;;
3050;SDS011;1535;51.098;6.414;2023-06-24T11:09:49;15.37;;;14.77;;
3050;SDS011;1535;51.098;6.414;2023-06-24T11:12:17;15.20;;;14.60;;
3050;SDS011;1535;51.098;6.414;2023-06-24T11:14:44;14.50;;;14.00;;
3050;SDS011;1535;51.098;6.414;2023-06-24T11:17:12;14.60;;;14.00;;
3050;SDS011;1535;51.098;6.414;2023-06-24T11:19:39;14.53;;;13.93;;
3050;SDS011;1535;51.098;6.414;2023-06-24T11:22:06;15.00;;;14.40;;
3050;SDS011;1535;51.098;6.414;2023-06-24T11:24:36;15.00;;;14.40;;
3050;SDS011;1535;51.098;6.414;2023-06-24T11:27:04;15.37;;;14.77;;
3050;SDS011;1535;51.098;6.414;2023-06-24T11:29:32;16.57;;;15.03;;
3050;SDS011;1535;51.098;6.414;2023-06-24T11:32:00;15.60;;;14.90;;
3050;SDS011;1535;51.098;6.414;2023-06-24T11:34:27;15.20;;;14.60;;
3050;SDS011;1535;51.098;6.414;2023-06-24T11:36:54;15.20;;;14.60;;
3050;SDS011;1535;51.098;6.414;2023-06-24T11:39:22;15.20;;;14.60;;
3050;SDS011;1535;51.098;6.414;2023-06-24T11:41:51;14.20;;;13.70;;
3050;SDS011;1535;51.098;6.414;2023-06-24T11:44:19;14.13;;;13.63;;
3050;SDS011;1535;51.098;6.414;2023-06-24T11:46:47;13.93;;;13.43;;
3050;SDS011;1535;51.098;6.414;2023-06-24T11:49:13;14.27;;;13.70;;
3050;SDS011;1535;51.098;6.414;2023-06-24T11:51:47;13.90;;;13.40;;
3050;SDS011;1535;51.098;6.414;2023-06-24T11:54:15;13.30;;;12.80;;
3050;SDS011;1535;51.098;6.414;2023-06-24T11:56:48;13.50;;;13.00;;
3050;SDS011;1535;51.098;6.414;2023-06-24T11:59:18;14.13;;;13.53;;
3050;SDS011;1535;51.098;6.414;2023-06-24T12:01:52;13.73;;;13.23;;
3050;SDS011;1535;51.098;6.414;2023-06-24T12:04:21;13.30;;;12.80;;
3050;SDS011;1535;51.098;6.414;2023-06-24T12:06:53;13.10;;;12.60;;
3050;SDS011;1535;51.098;6.414;2023-06-24T12:09:20;12.37;;;12.07;;
3050;SDS011;1535;51.098;6.414;2023-06-24T12:11:48;11.87;;;11.57;;
3050;SDS011;1535;51.098;6.414;2023-06-24T12:14:17;12.33;;;12.03;;
3050;SDS011;1535;51.098;6.414;2023-06-24T12:16:44;13.57;;;13.07;;
3050;SDS011;1535;51.098;6.414;2023-06-24T12:19:11;14.30;;;13.80;;
3050;SDS011;1535;51.098;6.414;2023-06-24T12:21:40;12.20;;;11.90;;
3050;SDS011;1535;51.098;6.414;2023-06-24T12:24:07;11.53;;;11.23;;
3050;SDS011;1535;51.098;6.414;2023-06-24T12:26:34;12.03;;;11.73;;
3050;SDS011;1535;51.098;6.414;2023-06-24T12:29:04;12.20;;;11.90;;
3050;SDS011;1535;51.098;6.414;2023-06-24T12:31:32;12.40;;;12.10;;
3050;SDS011;1535;51.098;6.414;2023-06-24T12:33:59;12.17;;;11.87;;
3050;SDS011;1535;51.098;6.414;2023-06-24T12:36:26;12.83;;;12.53;;
3050;SDS011;1535;51.098;6.414;2023-06-24T12:38:52;12.37;;;12.07;;
3050;SDS011;1535;51.098;6.414;2023-06-24T12:41:19;12.80;;;12.50;;
3050;SDS011;1535;51.098;6.414;2023-06-24T12:43:46;13.23;;;12.90;;
3050;SDS011;1535;51.098;6.414;2023-06-24T12:46:14;13.20;;;12.90;;
3050;SDS011;1535;51.098;6.414;2023-06-24T12:48:42;12.60;;;12.30;;
3050;SDS011;1535;51.098;6.414;2023-06-24T12:51:10;12.40;;;12.10;;
3050;SDS011;1535;51.098;6.414;2023-06-24T12:53:37;12.50;;;12.20;;
3050;SDS011;1535;51.098;6.414;2023-06-24T12:56:04;12.90;;;12.60;;
3050;SDS011;1535;51.098;6.414;2023-06-24T12:58:31;12.47;;;12.17;;
3050;SDS011;1535;51.098;6.414;2023-06-24T13:00:58;12.87;;;12.57;;
3050;SDS011;1535;51.098;6.414;2023-06-24T13:03:26;13.03;;;12.73;;
3050;SDS011;1535;51.098;6.414;2023-06-24T13:05:53;12.80;;;12.50;;
3050;SDS011;1535;51.098;6.414;2023-06-24T13:08:20;12.47;;;12.17;;
3050;SDS011;1535;51.098;6.414;2023-06-24T13:10:47;13.50;;;13.10;;
3050;SDS011;1535;51.098;6.414;2023-06-24T13:13:13;12.30;;;12.00;;
3050;SDS011;1535;51.098;6.414;2023-06-24T13:15:41;12.17;;;11.87;;
3050;SDS011;1535;51.098;6.414;2023-06-24T13:18:07;11.50;;;11.20;;
3050;SDS011;1535;51.098;6.414;2023-06-24T13:20:36;12.27;;;11.97;;
3050;SDS011;1535;51.098;6.414;2023-06-24T13:23:03;11.67;;;11.37;;
3050;SDS011;1535;51.098;6.414;2023-06-24T13:25:29;11.80;;;11.50;;
3050;SDS011;1535;51.098;6.414;2023-06-24T13:27:56;12.17;;;11.87;;
3050;SDS011;1535;51.098;6.414;2023-06-24T13:30:24;11.73;;;11.43;;
3050;SDS011;1535;51.098;6.414;2023-06-24T13:32:51;12.20;;;11.90;;
3050;SDS011;1535;51.098;6.414;2023-06-24T13:35:18;11.67;;;11.37;;
3050;SDS011;1535;51.098;6.414;2023-06-24T13:37:46;12.07;;;11.77;;
3050;SDS011;1535;51.098;6.414;2023-06-24T13:40:13;10.90;;;10.70;;
3050;SDS011;1535;51.098;6.414;2023-06-24T13:42:40;10.93;;;10.73;;
3050;SDS011;1535;51.098;6.414;2023-06-24T13:45:07;11.83;;;11.53;;
3050;SDS011;1535;51.098;6.414;2023-06-24T13:47:34;15.77;;;15.20;;
3050;SDS011;1535;51.098;6.414;2023-06-24T13:50:02;13.20;;;12.70;;
3050;SDS011;1535;51.098;6.414;2023-06-24T13:52:29;12.00;;;11.60;;
3050;SDS011;1535;51.098;6.414;2023-06-24T13:54:57;13.20;;;12.50;;
3050;SDS011;1535;51.098;6.414;2023-06-24T13:57:24;12.37;;;11.97;;
3050;SDS011;1535;51.098;6.414;2023-06-24T13:59:51;12.50;;;12.10;;
3050;SDS011;1535;51.098;6.414;2023-06-24T14:02:19;12.67;;;12.27;;
3050;SDS011;1535;51.098;6.414;2023-06-24T14:04:46;12.33;;;11.93;;
3050;SDS011;1535;51.098;6.414;2023-06-24T14:07:13;12.70;;;12.30;;
3050;SDS011;1535;51.098;6.414;2023-06-24T14:09:40;11.80;;;11.40;;
3050;SDS011;1535;51.098;6.414;2023-06-24T14:12:09;16.70;;;16.00;;
3050;SDS011;1535;51.098;6.414;2023-06-24T14:14:36;12.33;;;11.93;;
3050;SDS011;1535;51.098;6.414;2023-06-24T14:17:03;12.50;;;12.00;;
3050;SDS011;1535;51.098;6.414;2023-06-24T14:19:33;12.70;;;12.20;;
3050;SDS011;1535;51.098;6.414;2023-06-24T14:22:00;12.33;;;11.93;;
3050;SDS011;1535;51.098;6.414;2023-06-24T14:24:27;12.00;;;11.50;;
3050;SDS011;1535;51.098;6.414;2023-06-24T14:26:55;12.40;;;12.00;;
3050;SDS011;1535;51.098;6.414;2023-06-24T14:29:23;12.10;;;11.70;;
3050;SDS011;1535;51.098;6.414;2023-06-24T14:31:50;13.13;;;12.70;;
3050;SDS011;1535;51.098;6.414;2023-06-24T14:34:18;12.60;;;12.20;;
3050;SDS011;1535;51.098;6.414;2023-06-24T14:36:45;12.00;;;11.60;;
3050;SDS011;1535;51.098;6.414;2023-06-24T14:39:13;12.60;;;12.20;;
3050;SDS011;1535;51.098;6.414;2023-06-24T14:41:42;13.10;;;12.60;;
3050;SDS011;1535;51.098;6.414;2023-06-24T14:44:09;11.93;;;11.53;;
3050;SDS011;1535;51.098;6.414;2023-06-24T14:46:37;13.20;;;12.70;;
3050;SDS011;1535;51.098;6.414;2023-06-24T14:49:04;12.27;;;11.87;;
3050;SDS011;1535;51.098;6.414;2023-06-24T14:51:31;13.00;;;12.60;;
3050;SDS011;1535;51.098;6.414;2023-06-24T14:53:58;13.10;;;12.60;;
3050;SDS011;1535;51.098;6.414;2023-06-24T14:56:24;12.47;;;11.97;;
3050;SDS011;1535;51.098;6.414;2023-06-24T14:58:51;11.50;;;11.10;;
3050;SDS011;1535;51.098;6.414;2023-06-24T15:01:18;10.60;;;10.30;;
3050;SDS011;1535;51.098;6.414;2023-06-24T15:03:46;11.50;;;11.10;;
3050;SDS011;1535;51.098;6.414;2023-06-24T15:06:13;12.17;;;11.77;;